Time;durP1;ratioP1;P1;durP2;ratioP2;P2;SDS_P1;SDS_P2;PMS_P1;PMS_P2;Temp;Humidity;BMP_temperature;BMP_pressure;BME280_temperature;BME280_humidity;BME280_pressure;Samples;Min_cycle;Max_cycle;Signal;HPM_P1;HPM_P2
2022/12/08 00:02:02;;;;;;;7.03;2.17;;;2.40;99.90;;;;;;6125052;19;19910;-62
2022/12/08 00:04:07;;;;;;;7.95;1.48;;;2.70;99.90;;;;;;6124751;19;19925;-62
2022/12/08 00:11:00;;;;;;;1.52;0.63;;;1.60;99.90;;;;;;6125321;19;19930;-62
2022/12/08 00:13:04;;;;;;;8.23;1.08;;;2.80;99.90;;;;;;6128278;19;19935;-62
2022/12/08 00:15:10;;;;;;;4.25;1.00;;;1.90;99.90;;;;;;6124998;19;19919;-62
2022/12/08 00:17:16;;;;;;;3.13;1.02;;;2.80;99.90;;;;;;6124957;19;19937;-62
2022/12/08 00:19:20;;;;;;;2.97;0.82;;;;;;;;;;6124739;19;20341;-63
2022/12/08 00:21:26;;;;;;;1.45;0.90;;;2.50;99.90;;;;;;6123374;19;19978;-63
2022/12/08 00:23:30;;;;;;;2.53;0.73;;;2.60;99.90;;;;;;6124719;19;19998;-63
2022/12/08 00:25:37;;;;;;;2.63;0.63;;;2.20;99.90;;;;;;6127504;19;19924;-63
2022/12/08 00:27:46;;;;;;;3.88;0.75;;;2.00;99.90;;;;;;6125512;19;20392;-62
2022/12/08 00:29:51;;;;;;;1.30;0.63;;;;;;;;;;6126166;19;19932;-63
2022/12/08 00:31:59;;;;;;;3.45;0.60;;;;;;;;;;6124559;19;19983;-62
2022/12/08 00:34:03;;;;;;;6.90;0.93;;;;;;;;;;6124388;19;20313;-62
2022/12/08 00:36:09;;;;;;;2.35;0.68;;;2.10;99.90;;;;;;6123876;19;19929;-63
2022/12/08 00:38:17;;;;;;;1.98;0.60;;;2.10;99.90;;;;;;6119735;19;19982;-62
2022/12/08 00:40:21;;;;;;;1.05;0.68;;;2.40;99.90;;;;;;6123654;19;20349;-62
2022/12/08 00:42:32;;;;;;;1.27;0.68;;;;;;;;;;6127194;19;19916;-62
2022/12/08 00:44:47;;;;;;;3.65;0.85;;;2.10;99.90;;;;;;6124455;19;19930;-62
2022/12/08 00:46:52;;;;;;;3.03;0.98;;;2.20;99.90;;;;;;6127709;19;19926;-62
2022/12/08 00:48:56;;;;;;;3.30;0.63;;;2.10;99.90;;;;;;6122539;19;19918;-62
2022/12/08 00:51:00;;;;;;;2.58;0.60;;;;;;;;;;6123433;19;21942;-63
2022/12/08 00:53:04;;;;;;;4.63;0.57;;;2.60;99.90;;;;;;6127284;19;19910;-62
2022/12/08 00:55:12;;;;;;;1.55;0.50;;;;;;;;;;6130005;19;19978;-62
2022/12/08 00:57:16;;;;;;;1.42;0.60;;;1.80;99.90;;;;;;6124832;19;20324;-62
2022/12/08 00:59:20;;;;;;;3.63;0.40;;;2.20;99.90;;;;;;6130099;19;19946;-62
2022/12/08 01:01:24;;;;;;;0.73;0.43;;;;;;;;;;6127769;19;19923;-62
2022/12/08 01:03:28;;;;;;;3.95;1.00;;;;;;;;;;6132800;19;19918;-62
2022/12/08 01:05:34;;;;;;;5.88;0.50;;;2.40;99.90;;;;;;6129479;19;19914;-62
2022/12/08 01:07:44;;;;;;;2.33;0.32;;;1.80;99.90;;;;;;6129255;19;19923;-62
2022/12/08 01:09:48;;;;;;;0.47;0.20;;;;;;;;;;6131344;19;19929;-62
2022/12/08 01:11:55;;;;;;;0.85;0.40;;;;;;;;;;6130464;19;19919;-62
2022/12/08 01:13:59;;;;;;;2.15;0.38;;;2.00;99.90;;;;;;6129444;19;19921;-62
2022/12/08 01:16:03;;;;;;;1.17;0.55;;;;;;;;;;6132182;19;20390;-62
2022/12/08 01:18:07;;;;;;;1.45;0.30;;;2.20;99.90;;;;;;6131387;19;19926;-62
2022/12/08 01:20:13;;;;;;;1.95;0.65;;;2.20;99.90;;;;;;6126316;19;19926;-63
2022/12/08 01:22:17;;;;;;;3.17;0.73;;;;;;;;;;6128959;19;19942;-62
2022/12/08 01:24:23;;;;;;;0.85;0.50;;;;;;;;;;6129532;19;20511;-62
2022/12/08 01:26:27;;;;;;;3.28;1.00;;;;;;;;;;6130509;19;19918;-61
2022/12/08 01:28:34;;;;;;;8.50;2.40;;;2.20;99.90;;;;;;6128104;19;20275;-63
2022/12/08 01:30:41;;;;;;;4.60;3.38;;;2.20;99.90;;;;;;6128830;19;19914;-62
2022/12/08 01:32:45;;;;;;;9.38;4.05;;;;;;;;;;6129196;19;19915;-62
2022/12/08 01:34:49;;;;;;;6.72;4.35;;;;;;;;;;6129835;19;19919;-62
2022/12/08 01:36:53;;;;;;;5.03;3.20;;;;;;;;;;6120777;19;19939;-62
2022/12/08 01:38:59;;;;;;;11.57;4.30;;;;;;;;;;6130694;19;19926;-63
2022/12/08 01:41:04;;;;;;;6.93;4.40;;;;;;;;;;6128141;19;19928;-62
2022/12/08 01:43:08;;;;;;;11.93;5.50;;;;;;;;;;6129976;19;19922;-62
2022/12/08 01:45:24;;;;;;;10.68;5.38;;;2.20;99.90;;;;;;6128817;19;19961;-62
2022/12/08 01:47:46;;;;;;;13.18;5.78;;;2.60;99.90;;;;;;6128208;19;19915;-62
2022/12/08 01:49:50;;;;;;;10.90;6.35;;;1.60;99.90;;;;;;6130703;19;19937;-62
2022/12/08 01:52:00;;;;;;;12.88;5.78;;;2.40;99.90;;;;;;6131408;19;19923;-62
2022/12/08 01:54:06;;;;;;;11.30;5.90;;;2.60;99.90;;;;;;6122756;19;19918;-62
2022/12/08 01:56:16;;;;;;;10.23;5.55;;;1.60;99.90;;;;;;6129188;19;19931;-62
2022/12/08 01:58:24;;;;;;;9.60;4.28;;;2.50;99.90;;;;;;6127418;19;20312;-61
2022/12/08 02:00:31;;;;;;;6.85;3.17;;;;;;;;;;6130966;19;19922;-62
2022/12/08 02:02:55;;;;;;;4.93;2.38;;;2.30;99.90;;;;;;6128281;19;19910;-62
2022/12/08 02:05:11;;;;;;;2.65;1.08;;;2.20;99.90;;;;;;6128443;19;19919;-62
2022/12/08 02:07:16;;;;;;;3.00;1.00;;;2.20;99.90;;;;;;6128459;19;19921;-62
2022/12/08 02:09:21;;;;;;;1.73;0.93;;;2.50;99.90;;;;;;6128950;19;19915;-62
2022/12/08 02:11:25;;;;;;;3.95;0.70;;;;;;;;;;6124267;19;19958;-62
2022/12/08 02:13:31;;;;;;;1.80;0.63;;;2.20;99.90;;;;;;6129912;19;19918;-62
2022/12/08 02:15:44;;;;;;;3.53;0.38;;;2.30;99.90;;;;;;6128848;19;19926;-62
2022/12/08 02:18:03;;;;;;;4.22;0.50;;;2.20;99.90;;;;;;6128221;19;19919;-61
2022/12/08 02:20:28;;;;;;;2.38;0.40;;;;;;;;;;6126200;19;20705;-62
2022/12/08 02:22:43;;;;;;;0.55;0.25;;;2.20;99.90;;;;;;6128618;19;20340;-62
2022/12/08 02:24:50;;;;;;;;;;;2.30;99.90;;;;;;6130026;19;19914;-62
2022/12/08 02:27:25;;;;;;;0.47;0.30;;;;;;;;;;6128323;19;19977;-62
2022/12/08 02:29:44;;;;;;;3.63;0.30;;;;;;;;;;6128340;19;19919;-62
2022/12/08 02:32:00;;;;;;;1.70;0.20;;;;;;;;;;6129304;19;19925;-62
2022/12/08 02:34:17;;;;;;;4.57;0.88;;;2.30;99.90;;;;;;6129180;19;20260;-62
2022/12/08 02:36:25;;;;;;;3.38;0.15;;;;;;;;;;6127750;19;19922;-62
2022/12/08 02:38:30;;;;;;;;;;;;;;;;;;6130027;19;19923;-62
2022/12/08 02:40:41;;;;;;;1.25;0.50;;;2.30;99.90;;;;;;6120743;19;19922;-62
2022/12/08 02:42:49;;;;;;;1.08;0.20;;;2.90;99.90;;;;;;6128111;19;20297;-63
2022/12/08 02:44:57;;;;;;;1.00;0.35;;;;;;;;;;6129141;19;19919;-62
2022/12/08 02:47:07;;;;;;;1.65;0.20;;;2.20;99.90;;;;;;6128842;19;19946;-62
2022/12/08 02:49:15;;;;;;;5.00;0.68;;;2.10;99.90;;;;;;6129528;19;19914;-62
2022/12/08 02:51:19;;;;;;;2.28;0.30;;;;;;;;;;6127678;19;20284;-62
2022/12/08 02:53:23;;;;;;;0.30;0.22;;;2.80;99.90;;;;;;6127460;19;20396;-62
2022/12/08 02:55:29;;;;;;;1.13;0.40;;;;;;;;;;6124587;19;19930;-62
2022/12/08 02:57:44;;;;;;;0.40;0.30;;;;;;;;;;6126056;19;19918;-62
2022/12/08 03:00:03;;;;;;;1.40;0.20;;;2.20;99.90;;;;;;6128982;19;19922;-62
2022/12/08 03:02:27;;;;;;;3.03;0.30;;;2.20;99.90;;;;;;6128510;19;20264;-62
2022/12/08 03:04:43;;;;;;;1.23;0.30;;;2.10;99.90;;;;;;6127151;19;20302;-62
2022/12/08 03:06:53;;;;;;;1.00;0.20;;;1.70;99.90;;;;;;6127008;19;19934;-62
2022/12/08 03:09:01;;;;;;;0.10;0.10;;;2.20;99.90;;;;;;6129076;19;19986;-62
2022/12/08 03:11:10;;;;;;;2.95;0.28;;;;;;;;;;6126690;19;19914;-62
2022/12/08 03:13:16;;;;;;;0.38;0.20;;;;;;;;;;6120780;19;19926;-62
2022/12/08 03:15:23;;;;;;;0.77;0.30;;;2.20;99.90;;;;;;6124155;19;19911;-62
2022/12/08 03:17:30;;;;;;;0.43;0.30;;;2.10;99.90;;;;;;6127651;19;20043;-62
2022/12/08 03:19:40;;;;;;;3.78;0.45;;;2.00;99.90;;;;;;6129987;19;19911;-62
2022/12/08 03:21:49;;;;;;;;;;;;;;;;;;6128238;19;20335;-62
2022/12/08 03:23:56;;;;;;;0.90;0.30;;;2.10;99.90;;;;;;6126399;19;19962;-61
2022/12/08 03:26:13;;;;;;;0.60;0.20;;;1.30;99.90;;;;;;6126283;19;19910;-62
2022/12/08 03:28:18;;;;;;;0.65;0.20;;;;;;;;;;6124793;19;20344;-62
2022/12/08 03:30:22;;;;;;;1.73;0.40;;;;;;;;;;6128741;19;19943;-62
2022/12/08 03:32:32;;;;;;;0.73;0.30;;;1.90;99.90;;;;;;6119915;19;20384;-62
2022/12/08 03:34:39;;;;;;;0.40;0.20;;;2.00;99.90;;;;;;6128989;19;19923;-62
2022/12/08 03:36:44;;;;;;;0.77;0.30;;;2.30;99.90;;;;;;6130053;19;19914;-62
2022/12/08 03:38:53;;;;;;;0.40;0.30;;;1.90;99.90;;;;;;6127458;19;19926;-62
2022/12/08 03:43:13;;;;;;;0.82;0.20;;;1.70;99.90;;;;;;6125471;19;19954;-62
2022/12/08 03:45:17;;;;;;;0.30;0.13;;;;;;;;;;6126012;19;20642;-62
2022/12/08 03:47:22;;;;;;;0.65;0.20;;;;;;;;;;6119734;19;19922;-62
2022/12/08 03:49:25;;;;;;;1.35;0.20;;;1.50;99.90;;;;;;6125689;19;19986;-61
2022/12/08 03:51:32;;;;;;;0.45;0.30;;;2.00;99.90;;;;;;6127977;19;19919;-61
2022/12/08 03:53:36;;;;;;;0.70;0.30;;;;;;;;;;6127950;19;19938;-61
2022/12/08 03:55:41;;;;;;;0.63;0.20;;;2.30;99.90;;;;;;6125807;19;20014;-62
2022/12/08 03:57:46;;;;;;;0.10;0.10;;;;;;;;;;6123829;19;19926;-61
2022/12/08 03:59:50;;;;;;;1.23;0.40;;;1.40;99.90;;;;;;6127075;19;19923;-62
2022/12/08 04:01:54;;;;;;;0.38;0.20;;;1.90;99.90;;;;;;6126487;19;20017;-62
2022/12/08 04:03:58;;;;;;;0.40;0.20;;;1.90;99.90;;;;;;6126130;19;19914;-61
2022/12/08 04:06:02;;;;;;;0.20;0.20;;;;;;;;;;6120636;19;20324;-62
2022/12/08 04:08:09;;;;;;;1.70;0.20;;;;;;;;;;6128880;19;19918;-61
2022/12/08 04:10:13;;;;;;;0.38;0.20;;;1.50;99.90;;;;;;6127607;19;19930;-62
2022/12/08 04:12:17;;;;;;;0.30;0.20;;;1.30;99.90;;;;;;6124875;19;20574;-62
2022/12/08 04:14:21;;;;;;;0.90;0.10;;;1.90;99.90;;;;;;6126614;19;19922;-62
2022/12/08 04:16:27;;;;;;;1.25;0.15;;;1.60;99.90;;;;;;6124559;19;19929;-62
2022/12/08 04:18:31;;;;;;;0.40;0.15;;;;;;;;;;6126942;19;19951;-62
2022/12/08 04:20:35;;;;;;;2.55;0.55;;;;;;;;;;6125109;19;19914;-62
2022/12/08 04:22:39;;;;;;;3.22;0.30;;;1.10;99.90;;;;;;6126110;19;19929;-62
2022/12/08 04:24:46;;;;;;;0.30;0.30;;;1.30;99.90;;;;;;6124721;19;20001;-62
2022/12/08 04:26:51;;;;;;;0.10;0.10;;;1.30;99.90;;;;;;6126273;19;20282;-63
2022/12/08 04:28:57;;;;;;;2.08;0.30;;;;;;;;;;6129634;19;19923;-63
2022/12/08 04:31:03;;;;;;;0.13;0.13;;;1.50;99.90;;;;;;6124066;19;19921;-63
2022/12/08 04:33:07;;;;;;;0.15;0.10;;;;;;;;;;6130236;19;19930;-62
2022/12/08 04:35:11;;;;;;;0.43;0.30;;;1.50;99.90;;;;;;6129585;19;20018;-62
2022/12/08 04:37:15;;;;;;;0.80;0.20;;;1.60;99.90;;;;;;6130425;19;19943;-63
2022/12/08 04:39:20;;;;;;;0.90;0.30;;;;;;;;;;6133840;19;19930;-62
2022/12/08 04:41:26;;;;;;;1.35;0.32;;;1.60;99.90;;;;;;6130162;19;19928;-62
2022/12/08 04:43:30;;;;;;;0.68;0.22;;;1.60;99.90;;;;;;6128527;19;20364;-62
2022/12/08 04:45:35;;;;;;;0.20;0.13;;;;;;;;;;6129474;19;19970;-62
2022/12/08 04:47:41;;;;;;;0.20;0.10;;;1.60;99.90;;;;;;6129456;19;19918;-63
2022/12/08 04:49:46;;;;;;;0.82;0.25;;;;;;;;;;6124846;19;19978;-63
2022/12/08 04:51:50;;;;;;;1.60;0.20;;;1.50;99.90;;;;;;6129013;19;19914;-62
2022/12/08 04:53:54;;;;;;;0.75;0.30;;;2.00;99.90;;;;;;6132163;19;19918;-62
2022/12/08 04:56:00;;;;;;;0.43;0.20;;;1.30;99.90;;;;;;6129855;19;20272;-62
2022/12/08 04:58:08;;;;;;;0.38;0.30;;;1.60;99.90;;;;;;6129922;19;20257;-62
2022/12/08 05:00:12;;;;;;;0.30;0.10;;;;;;;;;;6132217;19;19950;-63
2022/12/08 05:02:17;;;;;;;0.35;0.35;;;;;;;;;;6129088;19;20262;-63
2022/12/08 05:04:21;;;;;;;0.30;0.20;;;1.70;99.90;;;;;;6131096;19;19914;-62
2022/12/08 05:06:25;;;;;;;0.10;0.10;;;1.80;99.90;;;;;;6124165;19;19922;-62
2022/12/08 05:08:29;;;;;;;2.33;0.40;;;1.90;99.90;;;;;;6127862;19;19919;-62
2022/12/08 05:10:33;;;;;;;0.95;0.35;;;1.50;99.90;;;;;;6130383;19;19922;-64
2022/12/08 05:12:37;;;;;;;2.15;0.47;;;2.20;99.90;;;;;;6132537;19;19922;-62
2022/12/08 05:14:44;;;;;;;0.68;0.20;;;;;;;;;;6129937;19;19946;-63
2022/12/08 05:16:48;;;;;;;1.08;0.20;;;;;;;;;;6132177;19;19918;-62
2022/12/08 05:18:52;;;;;;;1.23;0.15;;;1.50;99.90;;;;;;6129410;19;19911;-63
2022/12/08 05:20:56;;;;;;;1.35;0.10;;;1.80;99.90;;;;;;6131989;19;19931;-62
2022/12/08 05:23:00;;;;;;;0.65;0.17;;;1.30;99.90;;;;;;6127764;19;19907;-63
2022/12/08 05:25:04;;;;;;;0.55;0.20;;;;;;;;;;6122833;19;20331;-62
2022/12/08 05:27:08;;;;;;;2.55;0.30;;;2.00;99.90;;;;;;6131376;19;19938;-63
2022/12/08 05:29:12;;;;;;;1.10;0.13;;;1.70;99.90;;;;;;6129855;19;19919;-62
2022/12/08 05:31:19;;;;;;;1.60;0.40;;;;;;;;;;6130064;19;19993;-62
2022/12/08 05:33:23;;;;;;;0.20;0.10;;;2.10;99.90;;;;;;6128863;19;19935;-63
2022/12/08 05:35:27;;;;;;;1.52;0.17;;;;;;;;;;6132788;19;19921;-62
2022/12/08 05:37:31;;;;;;;0.40;0.20;;;1.70;99.90;;;;;;6128871;19;19959;-63
2022/12/08 05:39:35;;;;;;;0.45;0.38;;;2.30;99.90;;;;;;6128003;19;20317;-63
2022/12/08 05:41:39;;;;;;;0.50;0.20;;;1.80;99.90;;;;;;6128922;19;19925;-63
2022/12/08 05:43:43;;;;;;;0.20;0.20;;;;;;;;;;6118334;19;19914;-63
2022/12/08 05:45:47;;;;;;;1.40;0.30;;;;;;;;;;6131295;19;20384;-63
2022/12/08 05:47:54;;;;;;;1.13;0.17;;;1.80;99.90;;;;;;6127789;19;19959;-63
2022/12/08 05:49:59;;;;;;;1.20;0.30;;;;;;;;;;6129645;19;19922;-63
2022/12/08 05:52:03;;;;;;;0.63;0.30;;;2.20;99.90;;;;;;6131144;19;19990;-63
2022/12/08 05:54:07;;;;;;;0.57;0.25;;;;;;;;;;6128278;19;19990;-63
2022/12/08 05:56:11;;;;;;;0.55;0.30;;;1.90;99.90;;;;;;6128589;19;19921;-63
2022/12/08 05:58:18;;;;;;;2.70;0.20;;;1.40;99.90;;;;;;6127738;19;19927;-63
2022/12/08 06:00:23;;;;;;;0.25;0.20;;;2.30;99.90;;;;;;6124541;19;19918;-62
2022/12/08 06:02:27;;;;;;;2.17;0.30;;;;;;;;;;6131534;19;19923;-62
2022/12/08 06:04:34;;;;;;;1.10;0.20;;;;;;;;;;6130336;19;20245;-63
2022/12/08 06:06:38;;;;;;;0.20;0.20;;;1.70;99.90;;;;;;6131262;19;19922;-63
2022/12/08 06:08:42;;;;;;;0.80;0.30;;;1.50;99.90;;;;;;6129517;19;19914;-62
2022/12/08 06:10:47;;;;;;;1.65;0.30;;;1.60;99.90;;;;;;6128024;19;20632;-63
2022/12/08 06:12:52;;;;;;;2.58;0.40;;;;;;;;;;6130233;19;20379;-62
2022/12/08 06:14:56;;;;;;;1.20;0.40;;;;;;;;;;6129137;19;19929;-62
2022/12/08 06:16:59;;;;;;;1.15;0.30;;;1.30;99.90;;;;;;6129799;19;19931;-64
2022/12/08 06:19:16;;;;;;;1.45;0.38;;;;;;;;;;6128264;19;19931;-62
2022/12/08 06:21:23;;;;;;;1.13;0.55;;;;;;;;;;6128540;19;19986;-62
2022/12/08 06:23:27;;;;;;;3.25;0.52;;;1.40;99.90;;;;;;6126846;19;19915;-62
2022/12/08 06:25:32;;;;;;;1.02;0.57;;;1.60;99.90;;;;;;6129611;19;19923;-63
2022/12/08 06:27:36;;;;;;;3.65;1.35;;;;;;;;;;6126841;19;19946;-63
2022/12/08 06:29:40;;;;;;;1.60;0.70;;;1.30;99.90;;;;;;6126836;19;19930;-63
2022/12/08 06:31:45;;;;;;;2.00;0.57;;;;;;;;;;6128008;19;20323;-62
2022/12/08 06:33:49;;;;;;;2.50;0.75;;;1.30;99.90;;;;;;6127632;19;19915;-62
2022/12/08 06:35:53;;;;;;;2.65;1.20;;;1.40;99.90;;;;;;6129951;19;19931;-63
2022/12/08 06:38:00;;;;;;;2.28;0.70;;;;;;;;;;6127686;19;19919;-63
2022/12/08 06:40:04;;;;;;;3.30;0.70;;;;;;;;;;6130583;19;20237;-63
2022/12/08 06:44:24;;;;;;;0.30;0.20;;;1.00;99.90;;;;;;6127077;19;19911;-63
2022/12/08 06:46:29;;;;;;;2.63;0.20;;;;;;;;;;6120958;19;20364;-62
2022/12/08 06:48:32;;;;;;;0.52;0.40;;;1.20;99.90;;;;;;6120961;19;19929;-62
2022/12/08 06:50:37;;;;;;;2.65;0.88;;;;;;;;;;6127645;19;19919;-62
2022/12/08 06:52:42;;;;;;;1.00;0.50;;;1.60;99.90;;;;;;6126813;19;19947;-63
2022/12/08 06:54:49;;;;;;;1.02;0.30;;;1.40;99.90;;;;;;6130302;19;19972;-62
2022/12/08 06:56:53;;;;;;;1.98;0.20;;;1.30;99.90;;;;;;6126123;19;20376;-63
2022/12/08 06:58:58;;;;;;;1.02;0.15;;;1.30;99.90;;;;;;6127080;19;19945;-63
2022/12/08 07:01:06;;;;;;;0.50;0.30;;;;;;;;;;6125363;19;19934;-63
2022/12/08 07:03:11;;;;;;;0.32;0.20;;;1.40;99.90;;;;;;6127728;19;19918;-63
2022/12/08 07:05:15;;;;;;;0.93;0.80;;;1.40;99.90;;;;;;6129151;19;19922;-63
2022/12/08 07:07:20;;;;;;;1.00;0.47;;;;;;;;;;6127487;19;20515;-63
2022/12/08 07:09:24;;;;;;;0.70;0.30;;;1.20;99.90;;;;;;6126955;19;20332;-63
2022/12/08 07:11:30;;;;;;;0.68;0.30;;;1.30;99.90;;;;;;6116126;19;20015;-63
2022/12/08 07:13:35;;;;;;;0.30;0.30;;;;;;;;;;6112137;19;19957;-63
2022/12/08 07:15:39;;;;;;;1.00;0.30;;;;;;;;;;6127637;19;19918;-62
2022/12/08 07:17:43;;;;;;;3.15;0.55;;;;;;;;;;6126417;19;19914;-63
2022/12/08 07:19:47;;;;;;;0.68;0.50;;;;;;;;;;6121745;19;20274;-63
2022/12/08 07:21:51;;;;;;;3.40;0.60;;;;;;;;;;6121538;19;19922;-63
2022/12/08 07:23:56;;;;;;;1.20;0.47;;;;;;;;;;6126100;19;19926;-63
2022/12/08 07:26:03;;;;;;;1.65;0.43;;;1.20;99.90;;;;;;6126759;19;19926;-63
2022/12/08 07:28:14;;;;;;;2.03;0.68;;;;;;;;;;6124580;19;19915;-64
2022/12/08 07:30:21;;;;;;;6.05;1.25;;;1.40;99.90;;;;;;6122408;19;19922;-63
2022/12/08 07:32:25;;;;;;;2.40;0.52;;;;;;;;;;6128944;19;19921;-63
2022/12/08 07:34:29;;;;;;;3.05;0.82;;;;;;;;;;6126419;19;20371;-63
2022/12/08 07:36:34;;;;;;;2.78;0.80;;;;;;;;;;6117575;19;20229;-63
2022/12/08 07:38:38;;;;;;;1.88;0.60;;;;;;;;;;6128575;19;19919;-63
2022/12/08 07:40:45;;;;;;;3.30;0.70;;;1.40;99.90;;;;;;6125725;19;19914;-63
2022/12/08 07:42:49;;;;;;;1.60;0.60;;;0.80;99.90;;;;;;6126393;19;19970;-63
2022/12/08 07:44:58;;;;;;;3.17;1.38;;;1.20;99.90;;;;;;6125657;19;20392;-63
2022/12/08 07:47:02;;;;;;;2.50;0.60;;;0.90;99.90;;;;;;6125750;19;19915;-63
2022/12/08 07:49:06;;;;;;;5.30;0.90;;;1.40;99.90;;;;;;6125336;19;19929;-63
2022/12/08 07:51:11;;;;;;;2.42;0.50;;;;;;;;;;6125647;19;19919;-63
2022/12/08 07:53:16;;;;;;;1.52;0.60;;;1.40;99.90;;;;;;6125399;19;20193;-63
2022/12/08 07:55:20;;;;;;;1.50;0.40;;;0.90;99.90;;;;;;6118186;19;19926;-64
2022/12/08 07:57:23;;;;;;;0.65;0.22;;;1.00;99.90;;;;;;6127073;19;19918;-63
2022/12/08 07:59:28;;;;;;;0.40;0.28;;;0.70;99.90;;;;;;6125154;19;19923;-63
2022/12/08 08:01:36;;;;;;;0.55;0.32;;;;;;;;;;6128664;19;19990;-63
2022/12/08 08:03:40;;;;;;;2.88;0.32;;;0.80;99.90;;;;;;6131134;19;20329;-63
2022/12/08 08:05:47;;;;;;;1.25;0.50;;;1.00;99.90;;;;;;6130576;19;19986;-63
2022/12/08 08:07:51;;;;;;;0.63;0.40;;;;;;;;;;6131200;19;19918;-63
2022/12/08 08:09:55;;;;;;;1.50;0.80;;;1.20;99.90;;;;;;6131346;19;19922;-63
2022/12/08 08:11:59;;;;;;;1.10;0.40;;;1.00;99.90;;;;;;6125412;19;19950;-63
2022/12/08 08:14:03;;;;;;;0.68;0.45;;;0.90;99.90;;;;;;6131314;19;19915;-63
2022/12/08 08:16:09;;;;;;;0.57;0.38;;;1.40;99.90;;;;;;6133884;19;19935;-64
2022/12/08 08:18:15;;;;;;;2.90;0.68;;;1.30;99.90;;;;;;6131812;19;19946;-63
2022/12/08 08:20:20;;;;;;;1.90;0.65;;;1.20;99.90;;;;;;6132171;19;19957;-63
2022/12/08 08:22:24;;;;;;;4.03;0.70;;;;;;;;;;6130090;19;19923;-64
2022/12/08 08:24:28;;;;;;;1.23;0.73;;;1.40;99.90;;;;;;6128602;19;19914;-63
2022/12/08 08:26:32;;;;;;;0.90;0.40;;;;;;;;;;6132729;19;19922;-63
2022/12/08 08:28:36;;;;;;;1.98;0.60;;;1.30;99.90;;;;;;6130116;19;20589;-63
2022/12/08 08:30:47;;;;;;;0.88;0.40;;;;;;;;;;6121453;19;19922;-62
2022/12/08 08:33:10;;;;;;;2.08;0.45;;;;;;;;;;6133202;19;20364;-63
2022/12/08 08:35:18;;;;;;;0.73;0.50;;;;;;;;;;6131800;19;19919;-63
2022/12/08 08:37:21;;;;;;;2.38;0.68;;;1.40;99.90;;;;;;6132805;19;20339;-64
2022/12/08 08:39:26;;;;;;;0.50;0.40;;;;;;;;;;6125147;19;19918;-64
2022/12/08 08:41:30;;;;;;;1.20;0.65;;;0.60;99.90;;;;;;6133168;19;20244;-63
2022/12/08 08:43:35;;;;;;;2.28;0.60;;;;;;;;;;6129451;19;19915;-63
2022/12/08 08:45:45;;;;;;;1.90;0.50;;;1.00;99.90;;;;;;6132612;19;19950;-63
2022/12/08 08:47:49;;;;;;;2.22;0.50;;;;;;;;;;6128758;19;19918;-64
2022/12/08 08:49:53;;;;;;;3.05;0.57;;;;;;;;;;6132074;19;20352;-63
2022/12/08 08:52:06;;;;;;;2.33;0.60;;;;;;;;;;6129401;19;20391;-64
2022/12/08 08:54:12;;;;;;;3.25;0.77;;;1.40;99.90;;;;;;6131378;19;19914;-63
2022/12/08 08:56:20;;;;;;;1.02;0.60;;;1.60;99.90;;;;;;6129619;19;20234;-64
2022/12/08 08:58:29;;;;;;;0.68;0.40;;;1.10;99.90;;;;;;6129508;19;20341;-63
2022/12/08 09:00:34;;;;;;;2.58;0.52;;;1.20;99.90;;;;;;6132027;19;19946;-64
2022/12/08 09:02:57;;;;;;;1.65;0.60;;;1.80;99.90;;;;;;6128140;19;19951;-63
2022/12/08 09:05:01;;;;;;;2.03;0.60;;;;;;;;;;6127717;19;19922;-63
2022/12/08 09:07:08;;;;;;;1.67;0.68;;;1.40;99.90;;;;;;6129519;19;19930;-63
2022/12/08 09:09:13;;;;;;;1.80;0.77;;;;;;;;;;6121954;19;19918;-63
2022/12/08 09:11:17;;;;;;;2.17;0.90;;;;;;;;;;6132967;19;19995;-63
2022/12/08 09:13:21;;;;;;;1.63;0.50;;;2.00;99.90;;;;;;6127357;19;19918;-63
2022/12/08 09:15:25;;;;;;;1.88;0.90;;;;;;;;;;6130445;19;19922;-63
2022/12/08 09:17:29;;;;;;;2.30;0.80;;;1.60;99.90;;;;;;6129501;19;20258;-62
2022/12/08 09:19:33;;;;;;;3.58;1.15;;;1.90;99.90;;;;;;6129761;19;20253;-63
2022/12/08 09:21:37;;;;;;;3.60;0.90;;;1.40;99.90;;;;;;6128989;19;19910;-63
2022/12/08 09:23:45;;;;;;;1.88;0.90;;;;;;;;;;6124938;19;20412;-63
2022/12/08 09:25:49;;;;;;;3.25;0.90;;;2.00;99.90;;;;;;6128658;19;20284;-64
2022/12/08 09:27:53;;;;;;;2.72;0.90;;;1.90;99.90;;;;;;6131620;19;19974;-63
2022/12/08 09:29:57;;;;;;;4.60;0.90;;;;;;;;;;6127063;19;19929;-63
2022/12/08 09:32:01;;;;;;;4.43;1.27;;;;;;;;;;6132372;19;19922;-63
2022/12/08 09:34:06;;;;;;;1.02;0.80;;;1.70;99.90;;;;;;6128886;19;19918;-63
2022/12/08 09:36:11;;;;;;;2.65;1.02;;;1.20;99.90;;;;;;6128678;19;19978;-63
2022/12/08 09:38:15;;;;;;;5.90;1.15;;;;;;;;;;6130611;19;20273;-62
2022/12/08 09:40:42;;;;;;;1.10;0.60;;;;;;;;;;6128591;19;19930;-62
2022/12/08 09:42:52;;;;;;;1.60;0.88;;;1.90;99.90;;;;;;6122297;19;19922;-63
2022/12/08 09:45:05;;;;;;;1.35;0.85;;;1.80;99.90;;;;;;6130059;19;19930;-62
2022/12/08 09:47:24;;;;;;;2.47;0.82;;;2.40;99.90;;;;;;6125126;19;20043;-63
2022/12/08 09:49:44;;;;;;;1.58;0.77;;;1.90;99.90;;;;;;6131106;19;19934;-63
2022/12/08 09:51:48;;;;;;;1.13;0.80;;;;;;;;;;6128685;19;19949;-64
2022/12/08 09:53:56;;;;;;;2.70;0.80;;;1.50;99.90;;;;;;6129561;19;19914;-65
2022/12/08 09:56:06;;;;;;;2.58;0.88;;;;;;;;;;6129152;19;19914;-63
2022/12/08 09:58:19;;;;;;;3.28;0.70;;;2.10;99.90;;;;;;6127912;19;19911;-63
2022/12/08 10:00:25;;;;;;;2.20;0.82;;;2.20;99.90;;;;;;6121915;19;19922;-63
2022/12/08 10:02:31;;;;;;;1.10;0.77;;;2.70;99.90;;;;;;6131314;19;19922;-63
2022/12/08 10:04:37;;;;;;;2.85;0.93;;;1.70;99.90;;;;;;6127195;19;19952;-63
2022/12/08 10:06:48;;;;;;;2.83;0.80;;;2.10;99.90;;;;;;6123020;19;19921;-63
2022/12/08 10:09:08;;;;;;;1.23;0.52;;;2.80;99.90;;;;;;6126791;19;19919;-63
2022/12/08 10:11:25;;;;;;;3.65;1.00;;;2.40;99.90;;;;;;6127853;19;20328;-63
2022/12/08 10:13:38;;;;;;;3.05;0.93;;;2.40;99.90;;;;;;6129533;19;20026;-63
2022/12/08 10:15:47;;;;;;;3.50;0.70;;;2.60;99.90;;;;;;6127574;19;19922;-65
2022/12/08 10:17:53;;;;;;;2.53;0.93;;;;;;;;;;6127665;19;19918;-63
2022/12/08 10:20:01;;;;;;;2.33;0.80;;;2.30;99.90;;;;;;6126159;19;19931;-63
2022/12/08 10:22:19;;;;;;;4.90;0.90;;;2.30;99.90;;;;;;6127973;19;19923;-63
2022/12/08 10:24:28;;;;;;;2.03;1.02;;;2.40;99.90;;;;;;6121268;19;19930;-63
2022/12/08 10:26:32;;;;;;;;;;;;;;;;;;6126991;19;20018;-63
2022/12/08 10:28:38;;;;;;;2.42;0.95;;;2.50;99.90;;;;;;6119185;19;19939;-63
2022/12/08 10:30:43;;;;;;;2.95;0.90;;;;;;;;;;6125922;19;19911;-62
2022/12/08 10:32:49;;;;;;;2.72;0.93;;;3.10;99.90;;;;;;6125788;19;19926;-63
2022/12/08 10:35:05;;;;;;;3.08;0.82;;;;;;;;;;6130635;19;19982;-62
2022/12/08 10:37:11;;;;;;;1.35;0.80;;;3.30;99.90;;;;;;6127108;19;19978;-63
2022/12/08 10:39:31;;;;;;;3.65;0.98;;;3.20;99.90;;;;;;6128623;19;19922;-63
2022/12/08 10:41:35;;;;;;;3.03;0.75;;;;;;;;;;6127183;19;19915;-62
2022/12/08 10:43:50;;;;;;;1.52;0.93;;;3.60;99.90;;;;;;6127325;19;19943;-62
2022/12/08 10:45:54;;;;;;;0.50;0.50;;;3.40;99.90;;;;;;6128491;19;19946;-62
2022/12/08 10:48:02;;;;;;;1.38;0.75;;;3.80;99.90;;;;;;6126382;19;20318;-62
2022/12/08 10:50:19;;;;;;;1.98;0.70;;;3.40;99.90;;;;;;6120790;19;19918;-63
2022/12/08 10:52:25;;;;;;;2.70;0.43;;;3.50;99.90;;;;;;6128030;19;19926;-62
2022/12/08 10:54:31;;;;;;;1.67;0.50;;;3.50;99.90;;;;;;6125707;19;19926;-63
2022/12/08 10:56:36;;;;;;;3.92;0.88;;;4.10;99.90;;;;;;6116288;19;19929;-62
2022/12/08 10:58:42;;;;;;;2.75;0.93;;;3.60;99.90;;;;;;6118394;19;19922;-68
2022/12/08 11:00:48;;;;;;;4.95;1.02;;;3.60;99.90;;;;;;6126191;19;19929;-64
2022/12/08 11:03:02;;;;;;;4.13;0.82;;;3.40;99.90;;;;;;6130361;19;20337;-65
2022/12/08 11:05:06;;;;;;;2.28;0.73;;;3.70;99.90;;;;;;6125346;19;20028;-66
2022/12/08 11:07:12;;;;;;;3.13;1.45;;;3.40;99.90;;;;;;6126856;19;19923;-65
2022/12/08 11:09:37;;;;;;;1.85;0.60;;;3.80;99.90;;;;;;6127551;19;19915;-66
2022/12/08 11:11:47;;;;;;;1.65;0.68;;;3.70;99.90;;;;;;6127064;19;19910;-65
2022/12/08 11:14:08;;;;;;;2.42;0.70;;;3.90;99.90;;;;;;6127880;19;19923;-67
2022/12/08 11:16:17;;;;;;;2.53;0.90;;;3.60;99.90;;;;;;6121277;19;19925;-65
2022/12/08 11:18:29;;;;;;;5.07;1.08;;;3.90;99.90;;;;;;6126179;19;19915;-66
2022/12/08 11:20:40;;;;;;;3.70;0.57;;;4.00;99.90;;;;;;6129733;19;19927;-67
2022/12/08 11:22:46;;;;;;;5.82;0.77;;;4.70;99.90;;;;;;6126075;19;20376;-66
2022/12/08 11:25:00;;;;;;;1.33;0.70;;;4.80;99.90;;;;;;6127653;19;19941;-66
2022/12/08 11:27:06;;;;;;;1.13;0.50;;;4.90;99.90;;;;;;6129292;19;20399;-66
2022/12/08 11:29:15;;;;;;;1.10;0.35;;;4.30;99.90;;;;;;6125743;19;19915;-66
2022/12/08 11:31:30;;;;;;;1.65;0.47;;;3.80;99.90;;;;;;6127192;19;19936;-66
2022/12/08 11:33:36;;;;;;;1.98;0.75;;;4.40;99.90;;;;;;6114855;19;20468;-67
2022/12/08 11:35:43;;;;;;;2.20;0.77;;;4.90;99.90;;;;;;6128947;19;19939;-67
2022/12/08 11:38:04;;;;;;;2.50;0.40;;;4.00;99.90;;;;;;6125089;19;19982;-67
2022/12/08 11:40:16;;;;;;;3.40;0.90;;;4.90;99.90;;;;;;6127299;19;19939;-67
2022/12/08 11:42:26;;;;;;;2.33;1.02;;;5.10;99.90;;;;;;6126036;19;20255;-67
2022/12/08 11:44:37;;;;;;;2.13;0.60;;;4.90;99.90;;;;;;6123858;19;20018;-67
2022/12/08 11:46:49;;;;;;;3.53;0.60;;;5.10;99.90;;;;;;6128392;19;19922;-67
2022/12/08 11:48:59;;;;;;;2.80;0.57;;;5.20;99.90;;;;;;6118114;19;20315;-67
2022/12/08 11:51:10;;;;;;;2.35;0.82;;;4.80;99.90;;;;;;6126016;19;19929;-66